Alverca, Portugal

12:22 PM WEST on August 27, 2014 (GMT +0100)
Lisboa - Forte da casa | Change Station
CLOSE
Current Station
Personal Weather Station
Location: Forte Da Casa, LISBOA
Elevation: 135 ft
Nearby Weather Stations

Elev 135 ft 38.87 °N, 9.06 °W | Updated 1 minute ago

Clear
Clear
80.4 °F
Feels Like 82 °F
N
0.0
Wind Variable Wind from West
Gusts 0.0 mph

Today
High -- | Low -- °F
--% Chance of Precip.
Yesterday
High -- | Low -- °F
Precip. -- in
7:00 AM 8:14 PM
Waxing Crescent, 3% visible
Pressure 30.06 in
Visibility -9999.0 miles
Clouds
Heat Index 82 °F
Dew Point 64 °F
Humidity 57%
Rainfall 0.00 in
Snow Depth Not available.
UV Not available.
Pollen Not available.
Air Quality Not available.
Flu Activity Not available.
METAR LPPT 271100Z 31009KT 280V360 CAVOK 27/17 Q1018

More Conditions Fewer Conditions

Pressure 30.06 in
Visibility -9999.0 miles
Clouds
Heat Index 82 °F
Dew Point 64 °F
Humidity 57%
Rainfall 0.00 in
Snow Depth Not available.
UV Not available.
Pollen Not available.
Air Quality Not available.
Flu Activity Not available.
METAR LPPT 271100Z 31009KT 280V360 CAVOK 27/17 Q1018

More Conditions Fewer Conditions

10-Day Weather Forecast

Almanac

Astronomy

Aug. 27, 2014 Rise Set
Actual Time 7:00 AM WEST 8:14 PM WEST
Civil Twilight 6:32 AM WEST 8:41 PM WEST
Nautical Twilight 5:59 AM WEST 9:14 PM WEST
Astronomical Twilight 5:25 AM WEST 9:49 PM WEST
Moon 8:42 AM WEST 9:01 PM WEST
Length of Visible Light 14h 09m
Length of Day
13h 13m
Tomorrow will be 2m 23s shorter.
Waxing Crescent, 3% of the Moon is Illuminated
Today
Waxing Crescent
Sep 2
First Quarter
Sep 8
Full
Sep 15
Last Quarter
Sep 24
New

Yesterday's Extremes

Country Highs Country Lows

Community

WunderPhotos

Upload Photos

1,747,667 photos uploaded!

Nearby

Snow Depth

Not available.

Earthquake Activity

City Distance Mag. Time & Date
No recent earthquake activity has been reported nearby.
Minimum magnitude displayed is 2.5.

Coastal Water Temperatures

Place Temperature
No Stations Reporting

Nearby Weather Stations